Gaschem Caribic — A8UB4 — position and weather

sailwx.info

Track history (hours):
 
Tides and Currents Weather Stations Pressure Air Temp Water Temp Dewpoint Dewpoint Depression Visibility Wind Speed Wind Dir Waves Ship Positions

Gaschem Caribic

Last reported at 2018-Apr-11 00:56 UTC. Time now 2018-Apr-25 06:38 UTC.
Position N 29°21' W 094°46'.
Warning: this ship's position is 14 days out of date.

Length 129 m; draft 7.3 m.

Type: Ship. MMSI: 636091878.

Date/timePositionNaut miles runAvg speedWind from/ knotsBaromVisibWave heightAir tempDewpointWater temp
2018-Apr-11 00:56N 29°21' W 094°46'613.3
2018-Apr-11 00:30N 29°26' W 094°50'713.9
2018-Apr-11 00:00N 29°32' W 094°54'612.3
2018-Apr-10 23:30N 29°37' W 094°57'4 8.9
2018-Apr-10 23:00N 29°41' W 094°60'1 1.7
2018-Apr-10 22:30N 29°41' W 095°01'0 0.0
2018-Apr-10 21:59N 29°41' W 095°01'0 0.0
2018-Apr-10 21:29N 29°41' W 095°01'0 0.0
2018-Apr-10 20:59N 29°41' W 095°01'0 0.0
2018-Apr-10 20:23N 29°41' W 095°01'0 0.0
2018-Apr-10 19:59N 29°41' W 095°01'0 0.0
2018-Apr-10 19:29N 29°41' W 095°01'0 0.0
2018-Apr-10 18:59N 29°41' W 095°01'0 0.0
2018-Apr-10 18:29N 29°41' W 095°01'0 0.0
2018-Apr-10 17:59N 29°41' W 095°01'0 0.0
2018-Apr-10 17:29N 29°41' W 095°01'0 0.0
2018-Apr-10 16:59N 29°41' W 095°01'0 0.0
2018-Apr-10 16:29N 29°41' W 095°01'0 0.0
2018-Apr-10 15:59N 29°41' W 095°01'0 0.0
2018-Apr-10 15:26N 29°41' W 095°01'0 0.0
2018-Apr-10 14:59N 29°41' W 095°01'0 0.0
2018-Apr-10 14:29N 29°41' W 095°01'0 0.0
2018-Apr-10 13:59N 29°41' W 095°01'0 0.0
2018-Apr-10 13:29N 29°41' W 095°01'0 0.0
2018-Apr-10 12:59N 29°41' W 095°01'0 0.0
2018-Apr-10 12:29N 29°41' W 095°01'0 0.0
2018-Apr-10 11:59N 29°41' W 095°01'0 0.0
2018-Apr-10 11:29N 29°41' W 095°01'0 0.0
2018-Apr-10 10:59N 29°41' W 095°01'0 0.0
2018-Apr-10 10:29N 29°41' W 095°01'0 0.0
2018-Apr-10 09:59N 29°41' W 095°01'0 0.0
2018-Apr-10 09:29N 29°41' W 095°01'0 0.0
2018-Apr-10 08:59N 29°41' W 095°01'0 0.0
2018-Apr-10 08:29N 29°41' W 095°01'0 0.0
2018-Apr-10 07:59N 29°41' W 095°01'0 0.0
2018-Apr-10 07:29N 29°41' W 095°01'0 0.0
2018-Apr-10 06:56N 29°41' W 095°01'0 0.0
2018-Apr-10 06:29N 29°41' W 095°01'0 0.0
2018-Apr-10 05:59N 29°41' W 095°01'0 0.0
2018-Apr-10 05:26N 29°41' W 095°01'0 0.0
2018-Apr-10 04:59N 29°41' W 095°01'0 0.0
2018-Apr-10 04:29N 29°41' W 095°01'0 0.0
2018-Apr-10 03:59N 29°41' W 095°01'0 0.0
2018-Apr-10 03:29N 29°41' W 095°01'0 0.0
2018-Apr-10 02:59N 29°41' W 095°01'0 0.0
2018-Apr-10 02:29N 29°41' W 095°01'0 0.0
2018-Apr-10 01:59N 29°41' W 095°01'0 0.0
2018-Apr-10 01:23N 29°41' W 095°01'0 0.0
2018-Apr-10 00:59N 29°41' W 095°01'0 0.0
2018-Apr-10 00:29N 29°41' W 095°01'0 0.0
2018-Apr-09 23:59N 29°41' W 095°01'0 0.0
2018-Apr-09 23:29N 29°41' W 095°01'0 0.0
2018-Apr-09 22:59N 29°41' W 095°01'0 0.0
2018-Apr-09 22:29N 29°41' W 095°01'0 0.0
2018-Apr-09 21:59N 29°41' W 095°01'0 0.0
2018-Apr-09 21:26N 29°41' W 095°01'0 0.0
2018-Apr-09 20:59N 29°41' W 095°01'0 0.0
2018-Apr-09 20:29N 29°41' W 095°01'0 0.0
2018-Apr-09 19:55N 29°41' W 095°01'0 0.0
2018-Apr-09 19:30N 29°41' W 095°01'0 0.0
2018-Apr-09 19:00N 29°41' W 095°01'0 0.0
2018-Apr-09 18:30N 29°41' W 095°01'0 0.0
2018-Apr-09 18:00N 29°41' W 095°01'0 0.1
2018-Apr-09 17:31N 29°41' W 095°01'2 4.0
2018-Apr-09 17:00N 29°40' W 094°59'713.1
2018-Apr-09 16:30N 29°34' W 094°55'815.5
2018-Apr-09 16:00N 29°28' W 094°51'1314.5
2018-Apr-09 15:06N 29°19' W 094°39'215.4
2018-Apr-09 15:00N 29°18' W 094°38'4 8.6
2018-Apr-09 14:29N 29°16' W 094°33'9 0.6
2018-Apr-09 00:17N 29°14' W 094°43'0 0.0
2018-Apr-08 20:20N 29°14' W 094°43'  
2018-Apr-05 22:02N 29°14' W 094°43'0 0.0
2018-Apr-05 19:35N 29°14' W 094°43'0 0.0
2018-Apr-05 19:29N 29°14' W 094°43'0 0.0
2018-Apr-05 18:59N 29°14' W 094°43'0 0.0
2018-Apr-05 18:29N 29°14' W 094°43'0 0.0
2018-Apr-05 17:59N 29°14' W 094°43'0 0.0
2018-Apr-05 16:02N 29°14' W 094°43'0 0.0
2018-Apr-05 15:53N 29°14' W 094°43'0 0.0
2018-Apr-05 15:26N 29°14' W 094°43'0 0.0
2018-Apr-05 14:59N 29°14' W 094°43'0 0.0
2018-Apr-05 14:29N 29°14' W 094°43'0 0.0
2018-Apr-05 13:50N 29°14' W 094°43'0 0.0
2018-Apr-05 13:29N 29°14' W 094°43'0 0.0
2018-Apr-05 12:59N 29°14' W 094°43'0 0.0
2018-Apr-05 12:23N 29°14' W 094°43'0 0.0
2018-Apr-05 11:59N 29°14' W 094°43'0 0.0
2018-Apr-05 11:29N 29°14' W 094°43'0 0.0
2018-Apr-05 10:56N 29°14' W 094°43'0 0.0
2018-Apr-05 10:26N 29°14' W 094°43'0 0.0
2018-Apr-05 09:59N 29°14' W 094°43'0 0.0
2018-Apr-05 09:29N 29°14' W 094°43'0 0.0
2018-Apr-05 08:56N 29°14' W 094°43'0 0.0
2018-Apr-05 08:29N 29°14' W 094°43'0 0.0
2018-Apr-05 07:59N 29°14' W 094°43'0 0.0
2018-Apr-05 07:29N 29°14' W 094°43'0 0.0
2018-Apr-05 06:59N 29°14' W 094°43'0 0.0
2018-Apr-05 06:26N 29°14' W 094°43'0 0.0
2018-Apr-05 05:56N 29°14' W 094°43'0 0.0
2018-Apr-05 05:02N 29°14' W 094°43'0 0.0
2018-Apr-05 04:59N 29°14' W 094°43'0 0.0
2018-Apr-05 04:11N 29°14' W 094°43'0 0.0
2018-Apr-05 03:47N 29°14' W 094°43'0 0.0
2018-Apr-05 03:23N 29°14' W 094°43'0 0.0
2018-Apr-05 02:56N 29°14' W 094°43'0 0.0
2018-Apr-05 02:26N 29°14' W 094°43'0 0.0
2018-Apr-05 01:53N 29°14' W 094°43'0 0.0
2018-Apr-05 01:17N 29°14' W 094°43'0 0.0
2018-Apr-05 00:47N 29°14' W 094°43'0 0.0
2018-Apr-05 00:29N 29°14' W 094°43'0 0.0
2018-Apr-04 23:50N 29°14' W 094°43'0 0.0
2018-Apr-04 23:20N 29°14' W 094°43'0 0.0
2018-Apr-04 22:59N 29°14' W 094°43'0 0.0
2018-Apr-04 22:29N 29°14' W 094°43'0 0.0
2018-Apr-04 21:59N 29°14' W 094°43'0 0.0
2018-Apr-04 21:29N 29°14' W 094°43'0 0.0
2018-Apr-04 20:53N 29°14' W 094°43'0 0.0
2018-Apr-04 20:23N 29°14' W 094°43'0 0.0
2018-Apr-04 19:56N 29°14' W 094°43'0 0.1
2018-Apr-04 19:26N 29°14' W 094°43'0 0.0
2018-Apr-04 18:53N 29°14' W 094°43'0 0.0
2018-Apr-04 18:14N 29°14' W 094°43'0 0.0
2018-Apr-04 17:59N 29°14' W 094°43'0 0.0
2018-Apr-04 17:29N 29°14' W 094°43'0 0.0
2018-Apr-04 16:56N 29°14' W 094°43'0 0.0
2018-Apr-04 16:29N 29°14' W 094°43'0 0.0
2018-Apr-04 15:59N 29°14' W 094°43'0 0.0
2018-Apr-04 15:20N 29°14' W 094°43'0 0.0
2018-Apr-04 14:59N 29°14' W 094°43'0 0.0
2018-Apr-04 14:29N 29°14' W 094°43'0 0.0
2018-Apr-04 13:59N 29°14' W 094°43'0 0.0
2018-Apr-04 13:29N 29°14' W 094°43'0 0.0
2018-Apr-04 12:59N 29°14' W 094°43'0 0.0
2018-Apr-04 12:29N 29°14' W 094°43'0 0.0
2018-Apr-04 11:59N 29°14' W 094°43'0 0.0
2018-Apr-04 11:29N 29°14' W 094°43'0 0.0
2018-Apr-04 10:59N 29°14' W 094°43'0 0.0
2018-Apr-04 10:29N 29°14' W 094°43'0 0.0
2018-Apr-04 09:44N 29°14' W 094°43'0 0.0
2018-Apr-04 09:26N 29°14' W 094°43'0 0.0
2018-Apr-04 08:59N 29°14' W 094°43'0 0.0
2018-Apr-04 08:29N 29°14' W 094°43'0 0.0
2018-Apr-04 07:56N 29°14' W 094°43'0 0.0
2018-Apr-04 07:29N 29°14' W 094°43'0 0.0
2018-Apr-04 06:56N 29°14' W 094°43'0 0.0
2018-Apr-04 06:29N 29°14' W 094°43'0 0.1
2018-Apr-04 05:59N 29°14' W 094°43'0 0.1
2018-Apr-04 05:26N 29°14' W 094°43'0 0.0
2018-Apr-04 04:59N 29°14' W 094°43'0 0.0
2018-Apr-04 04:29N 29°14' W 094°43'0 0.0
2018-Apr-04 03:44N 29°14' W 094°43'0 0.0
2018-Apr-04 03:29N 29°14' W 094°43'0 0.0
2018-Apr-04 02:59N 29°14' W 094°43'0 0.0
2018-Apr-04 02:26N 29°14' W 094°43'0 0.0
2018-Apr-04 01:59N 29°14' W 094°43'0 0.0
2018-Apr-04 01:29N 29°14' W 094°43'0 0.0
2018-Apr-04 00:59N 29°14' W 094°43'0 0.1
2018-Apr-04 00:29N 29°14' W 094°43'0 0.0
2018-Apr-03 23:59N 29°14' W 094°43'0 0.0
2018-Apr-03 23:29N 29°14' W 094°43'0 0.0
2018-Apr-03 22:59N 29°14' W 094°43'0 0.0
2018-Apr-03 22:29N 29°14' W 094°43'0 0.0
2018-Apr-03 21:59N 29°14' W 094°43'0 0.0
2018-Apr-03 21:26N 29°14' W 094°43'0 0.0
2018-Apr-03 20:59N 29°14' W 094°43'0 0.0
2018-Apr-03 20:29N 29°14' W 094°43'0 0.0
2018-Apr-03 19:59N 29°14' W 094°43'0 0.0
2018-Apr-03 19:29N 29°14' W 094°43'0 0.0
2018-Apr-03 18:59N 29°14' W 094°43'0 0.1
2018-Apr-03 18:26N 29°14' W 094°43'3 6.4
2018-Apr-03 17:59N 29°16' W 094°41'4 6.9
2018-Apr-03 17:27N 29°19' W 094°39'511.5
2018-Apr-03 17:00N 29°21' W 094°45'5 9.9
2018-Apr-03 16:30N 29°24' W 094°49'510.3
2018-Apr-03 16:00N 29°29' W 094°52'510.2
2018-Apr-03 15:30N 29°33' W 094°55'510.4
2018-Apr-03 15:00N 29°38' W 094°58'4 7.6
2018-Apr-03 14:30N 29°41' W 094°60'1 1.4
2018-Apr-03 14:00N 29°41' W 095°01'0 0.0
2018-Apr-03 13:30N 29°41' W 095°01'0 0.0
2018-Apr-03 12:59N 29°41' W 095°01'0 0.0
2018-Apr-03 12:29N 29°41' W 095°01'0 0.0
2018-Apr-03 11:59N 29°41' W 095°01'0 0.0
2018-Apr-03 11:29N 29°41' W 095°01'0 0.0
2018-Apr-03 10:59N 29°41' W 095°01'0 0.0
2018-Apr-03 10:29N 29°41' W 095°01'0 0.0
2018-Apr-03 09:59N 29°41' W 095°01'0 0.0
2018-Apr-03 09:29N 29°41' W 095°01'0 0.0
2018-Apr-03 08:59N 29°41' W 095°01'0 0.0
2018-Apr-03 08:29N 29°41' W 095°01'0 0.0
2018-Apr-03 07:59N 29°41' W 095°01'0 0.0
2018-Apr-03 07:29N 29°41' W 095°01'0 0.0
2018-Apr-03 06:59N 29°41' W 095°01'0 0.0
2018-Apr-03 06:29N 29°41' W 095°01'0 0.0
2018-Apr-03 05:59N 29°41' W 095°01'0 0.0
2018-Apr-03 05:29N 29°41' W 095°01'0 0.0
2018-Apr-03 04:59N 29°41' W 095°01'0 0.0
2018-Apr-03 04:29N 29°41' W 095°01'0 0.0
2018-Apr-03 03:59N 29°41' W 095°01'0 0.0
2018-Apr-03 03:29N 29°41' W 095°01'0 0.0
2018-Apr-03 02:59N 29°41' W 095°01'0 0.0
2018-Apr-03 02:29N 29°41' W 095°01'0 0.0
2018-Apr-03 01:59N 29°41' W 095°01'0 0.0
2018-Apr-03 01:29N 29°41' W 095°01'0 0.0
2018-Apr-03 00:59N 29°41' W 095°01'0 0.0
2018-Apr-03 00:29N 29°41' W 095°01'0 0.0
2018-Apr-02 23:59N 29°41' W 095°01'0 0.0
2018-Apr-02 23:29N 29°41' W 095°01'0 0.0
2018-Apr-02 22:59N 29°41' W 095°01'0 0.0
2018-Apr-02 22:29N 29°41' W 095°01'0 0.0
2018-Apr-02 21:59N 29°41' W 095°01'0 0.0
2018-Apr-02 21:26N 29°41' W 095°01'0 0.0
2018-Apr-02 20:59N 29°41' W 095°01'0 0.0
2018-Apr-02 20:29N 29°41' W 095°01'0 0.0
2018-Apr-02 20:00N 29°41' W 095°01'1 1.1
2018-Apr-02 19:30N 29°41' W 094°60'3 6.1
2018-Apr-02 19:00N 29°38' W 094°58'612.3
2018-Apr-02 18:30N 29°33' W 094°55'714.5
2018-Apr-02 18:00N 29°27' W 094°50'713.5
2018-Apr-02 17:29N 29°21' W 094°46'914.0
2018-Apr-02 16:52N 29°18' W 094°37'410.0
2018-Apr-02 16:30N 29°16' W 094°33'2 2.7
2018-Apr-02 15:55N 29°15' W 094°32'3 7.5
2018-Apr-02 15:30N 29°13' W 094°34'611.6
2018-Apr-02 14:57N 29°14' W 094°41'1 2.1
2018-Apr-02 14:16N 29°14' W 094°43'0 0.0
2018-Apr-02 13:55N 29°14' W 094°43'0 0.0
2018-Apr-02 13:01N 29°14' W 094°43'0 0.1
2018-Apr-02 12:37N 29°14' W 094°43'0 0.0
2018-Apr-02 12:25N 29°14' W 094°43'0 0.0
2018-Apr-02 11:43N 29°14' W 094°43'0 0.0
2018-Apr-02 11:22N 29°14' W 094°43'0 0.0
2018-Apr-02 10:58N 29°14' W 094°43'0 0.0
2018-Apr-02 10:16N 29°14' W 094°43'0 0.0
2018-Apr-02 09:55N 29°14' W 094°43'0 0.0
2018-Apr-02 09:25N 29°14' W 094°43'0 0.0
2018-Apr-02 08:55N 29°14' W 094°43'0 0.0
2018-Apr-02 08:28N 29°14' W 094°43'0 0.0
2018-Apr-02 07:58N 29°14' W 094°43'0 0.0
2018-Apr-02 07:19N 29°14' W 094°43'0 0.0
2018-Apr-02 06:55N 29°14' W 094°43'0 0.0
2018-Apr-02 06:28N 29°14' W 094°43'0 0.0
2018-Apr-02 05:52N 29°14' W 094°43'0 0.0
2018-Apr-02 05:28N 29°14' W 094°43'0 0.0
2018-Apr-02 04:58N 29°14' W 094°43'0 0.0
2018-Apr-02 04:13N 29°14' W 094°43'0 0.0
2018-Apr-02 03:55N 29°14' W 094°43'0 0.0
2018-Apr-02 03:25N 29°14' W 094°43'0 0.0
2018-Apr-02 02:58N 29°14' W 094°43'0 0.0
2018-Apr-02 02:25N 29°14' W 094°43'0 0.0
2018-Apr-02 01:58N 29°14' W 094°43'0 0.0
2018-Apr-02 01:25N 29°14' W 094°43'0 0.0
2018-Apr-02 00:52N 29°14' W 094°43'0 0.0
2018-Apr-02 00:22N 29°14' W 094°43'0 0.0
2018-Apr-01 23:58N 29°14' W 094°43'0 0.0
2018-Apr-01 23:28N 29°14' W 094°43'0 0.0
2018-Apr-01 22:58N 29°14' W 094°43'0 0.0
2018-Apr-01 22:28N 29°14' W 094°43'0 0.0
2018-Apr-01 21:58N 29°14' W 094°43'0 0.0
2018-Apr-01 21:28N 29°14' W 094°43'0 0.0
2018-Apr-01 20:58N 29°14' W 094°43'0 0.0
2018-Apr-01 20:28N 29°14' W 094°43'0 0.0
2018-Apr-01 19:58N 29°14' W 094°43'0 0.0
2018-Apr-01 19:28N 29°14' W 094°43'0 0.0
2018-Apr-01 18:52N 29°14' W 094°43'0 0.0
2018-Apr-01 18:25N 29°14' W 094°43'0 0.0
2018-Apr-01 17:55N 29°14' W 094°43'0 0.0
2018-Apr-01 17:28N 29°14' W 094°43'0 0.0
2018-Apr-01 16:49N 29°14' W 094°43'0 0.0
2018-Apr-01 16:25N 29°14' W 094°43'0 0.0
2018-Apr-01 15:52N 29°14' W 094°43'0 0.0
2018-Apr-01 15:25N 29°14' W 094°43'0 0.0
2018-Apr-01 14:58N 29°14' W 094°43'0 0.0
2018-Apr-01 14:25N 29°14' W 094°43'0 0.0
2018-Apr-01 13:58N 29°14' W 094°43'0 0.0
2018-Apr-01 13:28N 29°14' W 094°43'0 0.0
2018-Apr-01 12:46N 29°14' W 094°43'0 0.0
2018-Apr-01 12:28N 29°14' W 094°43'0 0.0
2018-Apr-01 11:58N 29°14' W 094°43'0 0.0
2018-Apr-01 11:19N 29°14' W 094°43'0 0.0
2018-Apr-01 10:55N 29°14' W 094°43'0 0.0
2018-Apr-01 10:25N 29°14' W 094°43'0 0.0
2018-Apr-01 09:52N 29°14' W 094°43'0 0.0
2018-Apr-01 09:28N 29°14' W 094°43'0 0.0
2018-Apr-01 08:58N 29°14' W 094°43'0 0.0
2018-Apr-01 08:24N 29°14' W 094°43'0 0.0
2018-Apr-01 07:54N 29°14' W 094°43'0 0.0
2018-Apr-01 07:28N 29°14' W 094°43'0 0.0
2018-Apr-01 06:51N 29°14' W 094°43'0 0.0
2018-Apr-01 06:23N 29°14' W 094°43'0 0.0
2018-Apr-01 05:56N 29°14' W 094°43'0 0.0
2018-Apr-01 05:29N 29°14' W 094°43'0 0.0
2018-Apr-01 04:50N 29°14' W 094°43'0 0.0
2018-Apr-01 04:29N 29°14' W 094°43'0 0.0
2018-Apr-01 04:00N 29°14' W 094°43'0 0.0
2018-Apr-01 03:24N 29°14' W 094°43'0 0.0
2018-Apr-01 02:57N 29°14' W 094°43'0 0.0
2018-Apr-01 02:29N 29°14' W 094°43'0 0.0
2018-Apr-01 01:59N 29°14' W 094°43'0 0.0
2018-Apr-01 01:26N 29°14' W 094°43'0 0.0
2018-Apr-01 00:59N 29°14' W 094°43'  
Track history (hours):
 
Tides and Currents Weather Stations Pressure Air Temp Water Temp Dewpoint Dewpoint Depression Visibility Wind Speed Wind Dir Waves Ship Positions

Gaschem Caribic

Last reported at 2018-Apr-11 00:56 UTC. Time now 2018-Apr-25 06:38 UTC.
Position N 29°21' W 094°46'.
Warning: this ship's position is 14 days out of date.

Length 129 m; draft 7.3 m.

Type: Ship. MMSI: 636091878.

Date/timePositionNaut miles runAvg speedWind from/ knotsBaromVisibWave heightAir tempDewpointWater temp
2018-Apr-11 00:56N 29°21' W 094°46'613.3
2018-Apr-11 00:30N 29°26' W 094°50'713.9
2018-Apr-11 00:00N 29°32' W 094°54'612.3
2018-Apr-10 23:30N 29°37' W 094°57'4 8.9
2018-Apr-10 23:00N 29°41' W 094°60'1 1.7
2018-Apr-10 22:30N 29°41' W 095°01'0 0.0
2018-Apr-10 21:59N 29°41' W 095°01'0 0.0
2018-Apr-10 21:29N 29°41' W 095°01'0 0.0
2018-Apr-10 20:59N 29°41' W 095°01'0 0.0
2018-Apr-10 20:23N 29°41' W 095°01'0 0.0
2018-Apr-10 19:59N 29°41' W 095°01'0 0.0
2018-Apr-10 19:29N 29°41' W 095°01'0 0.0
2018-Apr-10 18:59N 29°41' W 095°01'0 0.0
2018-Apr-10 18:29N 29°41' W 095°01'0 0.0
2018-Apr-10 17:59N 29°41' W 095°01'0 0.0
2018-Apr-10 17:29N 29°41' W 095°01'0 0.0
2018-Apr-10 16:59N 29°41' W 095°01'0 0.0
2018-Apr-10 16:29N 29°41' W 095°01'0 0.0
2018-Apr-10 15:59N 29°41' W 095°01'0 0.0
2018-Apr-10 15:26N 29°41' W 095°01'0 0.0
2018-Apr-10 14:59N 29°41' W 095°01'0 0.0
2018-Apr-10 14:29N 29°41' W 095°01'0 0.0
2018-Apr-10 13:59N 29°41' W 095°01'0 0.0
2018-Apr-10 13:29N 29°41' W 095°01'0 0.0
2018-Apr-10 12:59N 29°41' W 095°01'0 0.0
2018-Apr-10 12:29N 29°41' W 095°01'0 0.0
2018-Apr-10 11:59N 29°41' W 095°01'0 0.0
2018-Apr-10 11:29N 29°41' W 095°01'0 0.0
2018-Apr-10 10:59N 29°41' W 095°01'0 0.0
2018-Apr-10 10:29N 29°41' W 095°01'0 0.0
2018-Apr-10 09:59N 29°41' W 095°01'0 0.0
2018-Apr-10 09:29N 29°41' W 095°01'0 0.0
2018-Apr-10 08:59N 29°41' W 095°01'0 0.0
2018-Apr-10 08:29N 29°41' W 095°01'0 0.0
2018-Apr-10 07:59N 29°41' W 095°01'0 0.0
2018-Apr-10 07:29N 29°41' W 095°01'0 0.0
2018-Apr-10 06:56N 29°41' W 095°01'0 0.0
2018-Apr-10 06:29N 29°41' W 095°01'0 0.0
2018-Apr-10 05:59N 29°41' W 095°01'0 0.0
2018-Apr-10 05:26N 29°41' W 095°01'0 0.0
2018-Apr-10 04:59N 29°41' W 095°01'0 0.0
2018-Apr-10 04:29N 29°41' W 095°01'0 0.0
2018-Apr-10 03:59N 29°41' W 095°01'0 0.0
2018-Apr-10 03:29N 29°41' W 095°01'0 0.0
2018-Apr-10 02:59N 29°41' W 095°01'0 0.0
2018-Apr-10 02:29N 29°41' W 095°01'0 0.0
2018-Apr-10 01:59N 29°41' W 095°01'0 0.0
2018-Apr-10 01:23N 29°41' W 095°01'0 0.0
2018-Apr-10 00:59N 29°41' W 095°01'0 0.0
2018-Apr-10 00:29N 29°41' W 095°01'0 0.0
2018-Apr-09 23:59N 29°41' W 095°01'0 0.0
2018-Apr-09 23:29N 29°41' W 095°01'0 0.0
2018-Apr-09 22:59N 29°41' W 095°01'0 0.0
2018-Apr-09 22:29N 29°41' W 095°01'0 0.0
2018-Apr-09 21:59N 29°41' W 095°01'0 0.0
2018-Apr-09 21:26N 29°41' W 095°01'0 0.0
2018-Apr-09 20:59N 29°41' W 095°01'0 0.0
2018-Apr-09 20:29N 29°41' W 095°01'0 0.0
2018-Apr-09 19:55N 29°41' W 095°01'0 0.0
2018-Apr-09 19:30N 29°41' W 095°01'0 0.0
2018-Apr-09 19:00N 29°41' W 095°01'0 0.0
2018-Apr-09 18:30N 29°41' W 095°01'0 0.0
2018-Apr-09 18:00N 29°41' W 095°01'0 0.1
2018-Apr-09 17:31N 29°41' W 095°01'2 4.0
2018-Apr-09 17:00N 29°40' W 094°59'713.1
2018-Apr-09 16:30N 29°34' W 094°55'815.5
2018-Apr-09 16:00N 29°28' W 094°51'1314.5
2018-Apr-09 15:06N 29°19' W 094°39'215.4
2018-Apr-09 15:00N 29°18' W 094°38'4 8.6
2018-Apr-09 14:29N 29°16' W 094°33'9 0.6
2018-Apr-09 00:17N 29°14' W 094°43'0 0.0
2018-Apr-08 20:20N 29°14' W 094°43'  
2018-Apr-05 22:02N 29°14' W 094°43'0 0.0
2018-Apr-05 19:35N 29°14' W 094°43'0 0.0
2018-Apr-05 19:29N 29°14' W 094°43'0 0.0
2018-Apr-05 18:59N 29°14' W 094°43'0 0.0
2018-Apr-05 18:29N 29°14' W 094°43'0 0.0
2018-Apr-05 17:59N 29°14' W 094°43'0 0.0
2018-Apr-05 16:02N 29°14' W 094°43'0 0.0
2018-Apr-05 15:53N 29°14' W 094°43'0 0.0
2018-Apr-05 15:26N 29°14' W 094°43'0 0.0
2018-Apr-05 14:59N 29°14' W 094°43'0 0.0
2018-Apr-05 14:29N 29°14' W 094°43'0 0.0
2018-Apr-05 13:50N 29°14' W 094°43'0 0.0
2018-Apr-05 13:29N 29°14' W 094°43'0 0.0
2018-Apr-05 12:59N 29°14' W 094°43'0 0.0
2018-Apr-05 12:23N 29°14' W 094°43'0 0.0
2018-Apr-05 11:59N 29°14' W 094°43'0 0.0
2018-Apr-05 11:29N 29°14' W 094°43'0 0.0
2018-Apr-05 10:56N 29°14' W 094°43'0 0.0
2018-Apr-05 10:26N 29°14' W 094°43'0 0.0
2018-Apr-05 09:59N 29°14' W 094°43'0 0.0
2018-Apr-05 09:29N 29°14' W 094°43'0 0.0
2018-Apr-05 08:56N 29°14' W 094°43'0 0.0
2018-Apr-05 08:29N 29°14' W 094°43'0 0.0
2018-Apr-05 07:59N 29°14' W 094°43'0 0.0
2018-Apr-05 07:29N 29°14' W 094°43'0 0.0
2018-Apr-05 06:59N 29°14' W 094°43'0 0.0
2018-Apr-05 06:26N 29°14' W 094°43'0 0.0
2018-Apr-05 05:56N 29°14' W 094°43'0 0.0
2018-Apr-05 05:02N 29°14' W 094°43'0 0.0
2018-Apr-05 04:59N 29°14' W 094°43'0 0.0
2018-Apr-05 04:11N 29°14' W 094°43'0 0.0
2018-Apr-05 03:47N 29°14' W 094°43'0 0.0
2018-Apr-05 03:23N 29°14' W 094°43'0 0.0
2018-Apr-05 02:56N 29°14' W 094°43'0 0.0
2018-Apr-05 02:26N 29°14' W 094°43'0 0.0
2018-Apr-05 01:53N 29°14' W 094°43'0 0.0
2018-Apr-05 01:17N 29°14' W 094°43'0 0.0
2018-Apr-05 00:47N 29°14' W 094°43'0 0.0
2018-Apr-05 00:29N 29°14' W 094°43'0 0.0
2018-Apr-04 23:50N 29°14' W 094°43'0 0.0
2018-Apr-04 23:20N 29°14' W 094°43'0 0.0
2018-Apr-04 22:59N 29°14' W 094°43'0 0.0
2018-Apr-04 22:29N 29°14' W 094°43'0 0.0
2018-Apr-04 21:59N 29°14' W 094°43'0 0.0
2018-Apr-04 21:29N 29°14' W 094°43'0 0.0
2018-Apr-04 20:53N 29°14' W 094°43'0 0.0
2018-Apr-04 20:23N 29°14' W 094°43'0 0.0
2018-Apr-04 19:56N 29°14' W 094°43'0 0.1
2018-Apr-04 19:26N 29°14' W 094°43'0 0.0
2018-Apr-04 18:53N 29°14' W 094°43'0 0.0
2018-Apr-04 18:14N 29°14' W 094°43'0 0.0
2018-Apr-04 17:59N 29°14' W 094°43'0 0.0
2018-Apr-04 17:29N 29°14' W 094°43'0 0.0
2018-Apr-04 16:56N 29°14' W 094°43'0 0.0
2018-Apr-04 16:29N 29°14' W 094°43'0 0.0
2018-Apr-04 15:59N 29°14' W 094°43'0 0.0
2018-Apr-04 15:20N 29°14' W 094°43'0 0.0
2018-Apr-04 14:59N 29°14' W 094°43'0 0.0
2018-Apr-04 14:29N 29°14' W 094°43'0 0.0
2018-Apr-04 13:59N 29°14' W 094°43'0 0.0
2018-Apr-04 13:29N 29°14' W 094°43'0 0.0
2018-Apr-04 12:59N 29°14' W 094°43'0 0.0
2018-Apr-04 12:29N 29°14' W 094°43'0 0.0
2018-Apr-04 11:59N 29°14' W 094°43'0 0.0
2018-Apr-04 11:29N 29°14' W 094°43'0 0.0
2018-Apr-04 10:59N 29°14' W 094°43'0 0.0
2018-Apr-04 10:29N 29°14' W 094°43'0 0.0
2018-Apr-04 09:44N 29°14' W 094°43'0 0.0
2018-Apr-04 09:26N 29°14' W 094°43'0 0.0
2018-Apr-04 08:59N 29°14' W 094°43'0 0.0
2018-Apr-04 08:29N 29°14' W 094°43'0 0.0
2018-Apr-04 07:56N 29°14' W 094°43'0 0.0
2018-Apr-04 07:29N 29°14' W 094°43'0 0.0
2018-Apr-04 06:56N 29°14' W 094°43'0 0.0
2018-Apr-04 06:29N 29°14' W 094°43'0 0.1
2018-Apr-04 05:59N 29°14' W 094°43'0 0.1
2018-Apr-04 05:26N 29°14' W 094°43'0 0.0
2018-Apr-04 04:59N 29°14' W 094°43'0 0.0
2018-Apr-04 04:29N 29°14' W 094°43'0 0.0
2018-Apr-04 03:44N 29°14' W 094°43'0 0.0
2018-Apr-04 03:29N 29°14' W 094°43'0 0.0
2018-Apr-04 02:59N 29°14' W 094°43'0 0.0
2018-Apr-04 02:26N 29°14' W 094°43'0 0.0
2018-Apr-04 01:59N 29°14' W 094°43'0 0.0
2018-Apr-04 01:29N 29°14' W 094°43'0 0.0
2018-Apr-04 00:59N 29°14' W 094°43'0 0.1
2018-Apr-04 00:29N 29°14' W 094°43'0 0.0
2018-Apr-03 23:59N 29°14' W 094°43'0 0.0
2018-Apr-03 23:29N 29°14' W 094°43'0 0.0
2018-Apr-03 22:59N 29°14' W 094°43'0 0.0
2018-Apr-03 22:29N 29°14' W 094°43'0 0.0
2018-Apr-03 21:59N 29°14' W 094°43'0 0.0
2018-Apr-03 21:26N 29°14' W 094°43'0 0.0
2018-Apr-03 20:59N 29°14' W 094°43'0 0.0
2018-Apr-03 20:29N 29°14' W 094°43'0 0.0
2018-Apr-03 19:59N 29°14' W 094°43'0 0.0
2018-Apr-03 19:29N 29°14' W 094°43'0 0.0
2018-Apr-03 18:59N 29°14' W 094°43'0 0.1
2018-Apr-03 18:26N 29°14' W 094°43'3 6.4
2018-Apr-03 17:59N 29°16' W 094°41'4 6.9
2018-Apr-03 17:27N 29°19' W 094°39'511.5
2018-Apr-03 17:00N 29°21' W 094°45'5 9.9
2018-Apr-03 16:30N 29°24' W 094°49'510.3
2018-Apr-03 16:00N 29°29' W 094°52'510.2
2018-Apr-03 15:30N 29°33' W 094°55'510.4
2018-Apr-03 15:00N 29°38' W 094°58'4 7.6
2018-Apr-03 14:30N 29°41' W 094°60'1 1.4
2018-Apr-03 14:00N 29°41' W 095°01'0 0.0
2018-Apr-03 13:30N 29°41' W 095°01'0 0.0
2018-Apr-03 12:59N 29°41' W 095°01'0 0.0
2018-Apr-03 12:29N 29°41' W 095°01'0 0.0
2018-Apr-03 11:59N 29°41' W 095°01'0 0.0
2018-Apr-03 11:29N 29°41' W 095°01'0 0.0
2018-Apr-03 10:59N 29°41' W 095°01'0 0.0
2018-Apr-03 10:29N 29°41' W 095°01'0 0.0
2018-Apr-03 09:59N 29°41' W 095°01'0 0.0
2018-Apr-03 09:29N 29°41' W 095°01'0 0.0
2018-Apr-03 08:59N 29°41' W 095°01'0 0.0
2018-Apr-03 08:29N 29°41' W 095°01'0 0.0
2018-Apr-03 07:59N 29°41' W 095°01'0 0.0
2018-Apr-03 07:29N 29°41' W 095°01'0 0.0
2018-Apr-03 06:59N 29°41' W 095°01'0 0.0
2018-Apr-03 06:29N 29°41' W 095°01'0 0.0
2018-Apr-03 05:59N 29°41' W 095°01'0 0.0
2018-Apr-03 05:29N 29°41' W 095°01'0 0.0
2018-Apr-03 04:59N 29°41' W 095°01'0 0.0
2018-Apr-03 04:29N 29°41' W 095°01'0 0.0
2018-Apr-03 03:59N 29°41' W 095°01'0 0.0
2018-Apr-03 03:29N 29°41' W 095°01'0 0.0
2018-Apr-03 02:59N 29°41' W 095°01'0 0.0
2018-Apr-03 02:29N 29°41' W 095°01'0 0.0
2018-Apr-03 01:59N 29°41' W 095°01'0 0.0
2018-Apr-03 01:29N 29°41' W 095°01'0 0.0
2018-Apr-03 00:59N 29°41' W 095°01'0 0.0
2018-Apr-03 00:29N 29°41' W 095°01'0 0.0
2018-Apr-02 23:59N 29°41' W 095°01'0 0.0
2018-Apr-02 23:29N 29°41' W 095°01'0 0.0
2018-Apr-02 22:59N 29°41' W 095°01'0 0.0
2018-Apr-02 22:29N 29°41' W 095°01'0 0.0
2018-Apr-02 21:59N 29°41' W 095°01'0 0.0
2018-Apr-02 21:26N 29°41' W 095°01'0 0.0
2018-Apr-02 20:59N 29°41' W 095°01'0 0.0
2018-Apr-02 20:29N 29°41' W 095°01'0 0.0
2018-Apr-02 20:00N 29°41' W 095°01'1 1.1
2018-Apr-02 19:30N 29°41' W 094°60'3 6.1
2018-Apr-02 19:00N 29°38' W 094°58'612.3
2018-Apr-02 18:30N 29°33' W 094°55'714.5
2018-Apr-02 18:00N 29°27' W 094°50'713.5
2018-Apr-02 17:29N 29°21' W 094°46'914.0
2018-Apr-02 16:52N 29°18' W 094°37'410.0
2018-Apr-02 16:30N 29°16' W 094°33'2 2.7
2018-Apr-02 15:55N 29°15' W 094°32'3 7.5
2018-Apr-02 15:30N 29°13' W 094°34'611.6
2018-Apr-02 14:57N 29°14' W 094°41'1 2.1
2018-Apr-02 14:16N 29°14' W 094°43'0 0.0
2018-Apr-02 13:55N 29°14' W 094°43'0 0.0
2018-Apr-02 13:01N 29°14' W 094°43'0 0.1
2018-Apr-02 12:37N 29°14' W 094°43'0 0.0
2018-Apr-02 12:25N 29°14' W 094°43'0 0.0
2018-Apr-02 11:43N 29°14' W 094°43'0 0.0
2018-Apr-02 11:22N 29°14' W 094°43'0 0.0
2018-Apr-02 10:58N 29°14' W 094°43'0 0.0
2018-Apr-02 10:16N 29°14' W 094°43'0 0.0
2018-Apr-02 09:55N 29°14' W 094°43'0 0.0
2018-Apr-02 09:25N 29°14' W 094°43'0 0.0
2018-Apr-02 08:55N 29°14' W 094°43'0 0.0
2018-Apr-02 08:28N 29°14' W 094°43'0 0.0
2018-Apr-02 07:58N 29°14' W 094°43'0 0.0
2018-Apr-02 07:19N 29°14' W 094°43'0 0.0
2018-Apr-02 06:55N 29°14' W 094°43'0 0.0
2018-Apr-02 06:28N 29°14' W 094°43'0 0.0
2018-Apr-02 05:52N 29°14' W 094°43'0 0.0
2018-Apr-02 05:28N 29°14' W 094°43'0 0.0
2018-Apr-02 04:58N 29°14' W 094°43'0 0.0
2018-Apr-02 04:13N 29°14' W 094°43'0 0.0
2018-Apr-02 03:55N 29°14' W 094°43'0 0.0
2018-Apr-02 03:25N 29°14' W 094°43'0 0.0
2018-Apr-02 02:58N 29°14' W 094°43'0 0.0
2018-Apr-02 02:25N 29°14' W 094°43'0 0.0
2018-Apr-02 01:58N 29°14' W 094°43'0 0.0
2018-Apr-02 01:25N 29°14' W 094°43'0 0.0
2018-Apr-02 00:52N 29°14' W 094°43'0 0.0
2018-Apr-02 00:22N 29°14' W 094°43'0 0.0
2018-Apr-01 23:58N 29°14' W 094°43'0 0.0
2018-Apr-01 23:28N 29°14' W 094°43'0 0.0
2018-Apr-01 22:58N 29°14' W 094°43'0 0.0
2018-Apr-01 22:28N 29°14' W 094°43'0 0.0
2018-Apr-01 21:58N 29°14' W 094°43'0 0.0
2018-Apr-01 21:28N 29°14' W 094°43'0 0.0
2018-Apr-01 20:58N 29°14' W 094°43'0 0.0
2018-Apr-01 20:28N 29°14' W 094°43'0 0.0
2018-Apr-01 19:58N 29°14' W 094°43'0 0.0
2018-Apr-01 19:28N 29°14' W 094°43'0 0.0
2018-Apr-01 18:52N 29°14' W 094°43'0 0.0
2018-Apr-01 18:25N 29°14' W 094°43'0 0.0
2018-Apr-01 17:55N 29°14' W 094°43'0 0.0
2018-Apr-01 17:28N 29°14' W 094°43'0 0.0
2018-Apr-01 16:49N 29°14' W 094°43'0 0.0
2018-Apr-01 16:25N 29°14' W 094°43'0 0.0
2018-Apr-01 15:52N 29°14' W 094°43'0 0.0
2018-Apr-01 15:25N 29°14' W 094°43'0 0.0
2018-Apr-01 14:58N 29°14' W 094°43'0 0.0
2018-Apr-01 14:25N 29°14' W 094°43'0 0.0
2018-Apr-01 13:58N 29°14' W 094°43'0 0.0
2018-Apr-01 13:28N 29°14' W 094°43'0 0.0
2018-Apr-01 12:46N 29°14' W 094°43'0 0.0
2018-Apr-01 12:28N 29°14' W 094°43'0 0.0
2018-Apr-01 11:58N 29°14' W 094°43'0 0.0
2018-Apr-01 11:19N 29°14' W 094°43'0 0.0
2018-Apr-01 10:55N 29°14' W 094°43'0 0.0
2018-Apr-01 10:25N 29°14' W 094°43'0 0.0
2018-Apr-01 09:52N 29°14' W 094°43'0 0.0
2018-Apr-01 09:28N 29°14' W 094°43'0 0.0
2018-Apr-01 08:58N 29°14' W 094°43'0 0.0
2018-Apr-01 08:24N 29°14' W 094°43'0 0.0
2018-Apr-01 07:54N 29°14' W 094°43'0 0.0
2018-Apr-01 07:28N 29°14' W 094°43'0 0.0
2018-Apr-01 06:51N 29°14' W 094°43'0 0.0
2018-Apr-01 06:23N 29°14' W 094°43'0 0.0
2018-Apr-01 05:56N 29°14' W 094°43'0 0.0
2018-Apr-01 05:29N 29°14' W 094°43'0 0.0
2018-Apr-01 04:50N 29°14' W 094°43'0 0.0
2018-Apr-01 04:29N 29°14' W 094°43'0 0.0
2018-Apr-01 04:00N 29°14' W 094°43'0 0.0
2018-Apr-01 03:24N 29°14' W 094°43'0 0.0
2018-Apr-01 02:57N 29°14' W 094°43'0 0.0
2018-Apr-01 02:29N 29°14' W 094°43'0 0.0
2018-Apr-01 01:59N 29°14' W 094°43'0 0.0
2018-Apr-01 01:26N 29°14' W 094°43'0 0.0
2018-Apr-01 00:59N 29°14' W 094°43'  

Dump ship's entire track history